Terminal Aerodrome Forecast
Issued by NWS

Home | Current Version | Previous Version | Text Only | Print | Product List | Glossary On
Versions: 1 2 3 4 5 6 7 8 9 10 11 12 13 14 15 16 17 18 19 20
913
FTUS46 KMTR 202320
TAFSTS
TAF
KSTS 202320Z 2100/2124 31009KT P6SM FEW030 FEW200
     FM210300 30004KT P6SM FEW025 SCT200
     FM210800 VRB02KT 5SM BR SCT020 BKN150
      TEMPO 2111/2115 1/2SM FG VV002
     FM211700 VRB02KT 6SM BR VCSH SCT002 BKN020 OVC080
     FM212100 21005KT 6SM -RA BR BKN020 OVC060=

USA.gov is the U.S. government's official web portal to all federal, state and local government web resources and services.